sensor_id;sensor_type;location;lat;lon;timestamp;temperature;humidity
37460;DHT22;23318;50.966;5.284;2023-01-05T00:01:11;11.40;99.90
37460;DHT22;23318;50.966;5.284;2023-01-05T00:03:37;11.50;99.90
37460;DHT22;23318;50.966;5.284;2023-01-05T00:06:11;11.40;99.90
37460;DHT22;23318;50.966;5.284;2023-01-05T00:08:37;11.50;99.90
37460;DHT22;23318;50.966;5.284;2023-01-05T00:11:25;11.50;99.90
37460;DHT22;23318;50.966;5.284;2023-01-05T00:14:24;11.50;99.90
37460;DHT22;23318;50.966;5.284;2023-01-05T00:17:12;11.50;99.90
37460;DHT22;23318;50.966;5.284;2023-01-05T00:19:57;11.50;99.90
37460;DHT22;23318;50.966;5.284;2023-01-05T00:23:00;11.50;99.90
37460;DHT22;23318;50.966;5.284;2023-01-05T00:25:26;11.50;99.90
37460;DHT22;23318;50.966;5.284;2023-01-05T00:27:52;11.40;99.90
37460;DHT22;23318;50.966;5.284;2023-01-05T00:30:28;11.40;99.90
37460;DHT22;23318;50.966;5.284;2023-01-05T00:32:54;11.50;99.90
37460;DHT22;23318;50.966;5.284;2023-01-05T00:35:21;11.40;99.90
37460;DHT22;23318;50.966;5.284;2023-01-05T00:37:47;11.50;99.90
37460;DHT22;23318;50.966;5.284;2023-01-05T00:40:17;11.60;99.90
37460;DHT22;23318;50.966;5.284;2023-01-05T00:42:44;11.50;99.90
37460;DHT22;23318;50.966;5.284;2023-01-05T00:45:12;11.50;99.90
37460;DHT22;23318;50.966;5.284;2023-01-05T00:47:38;11.50;99.90
37460;DHT22;23318;50.966;5.284;2023-01-05T00:50:04;11.50;99.90
37460;DHT22;23318;50.966;5.284;2023-01-05T00:52:30;11.50;99.90
37460;DHT22;23318;50.966;5.284;2023-01-05T00:54:56;11.50;99.90
37460;DHT22;23318;50.966;5.284;2023-01-05T00:57:22;11.60;99.90
37460;DHT22;23318;50.966;5.284;2023-01-05T00:59:47;11.50;99.90
37460;DHT22;23318;50.966;5.284;2023-01-05T01:02:13;11.40;99.90
37460;DHT22;23318;50.966;5.284;2023-01-05T01:04:39;11.50;99.90
37460;DHT22;23318;50.966;5.284;2023-01-05T01:07:05;11.50;99.90
37460;DHT22;23318;50.966;5.284;2023-01-05T01:09:32;11.40;99.90
37460;DHT22;23318;50.966;5.284;2023-01-05T01:11:58;11.40;99.90
37460;DHT22;23318;50.966;5.284;2023-01-05T01:14:24;11.30;99.90
37460;DHT22;23318;50.966;5.284;2023-01-05T01:16:49;11.30;99.90
37460;DHT22;23318;50.966;5.284;2023-01-05T01:19:18;11.40;99.90
37460;DHT22;23318;50.966;5.284;2023-01-05T01:21:44;11.40;99.90
37460;DHT22;23318;50.966;5.284;2023-01-05T01:24:19;11.40;99.90
37460;DHT22;23318;50.966;5.284;2023-01-05T01:26:45;11.40;99.90
37460;DHT22;23318;50.966;5.284;2023-01-05T01:29:11;11.30;99.90
37460;DHT22;23318;50.966;5.284;2023-01-05T01:31:37;11.30;99.90
37460;DHT22;23318;50.966;5.284;2023-01-05T01:34:04;11.30;99.90
37460;DHT22;23318;50.966;5.284;2023-01-05T01:36:29;11.30;99.90
37460;DHT22;23318;50.966;5.284;2023-01-05T01:38:55;11.30;99.90
37460;DHT22;23318;50.966;5.284;2023-01-05T01:41:21;11.30;99.90
37460;DHT22;23318;50.966;5.284;2023-01-05T01:43:49;11.30;99.90
37460;DHT22;23318;50.966;5.284;2023-01-05T01:46:17;11.20;99.90
37460;DHT22;23318;50.966;5.284;2023-01-05T01:53:58;11.20;99.90
37460;DHT22;23318;50.966;5.284;2023-01-05T01:56:28;11.30;99.90
37460;DHT22;23318;50.966;5.284;2023-01-05T01:58:55;11.20;99.90
37460;DHT22;23318;50.966;5.284;2023-01-05T02:01:21;11.20;99.90
37460;DHT22;23318;50.966;5.284;2023-01-05T02:03:46;11.20;99.90
37460;DHT22;23318;50.966;5.284;2023-01-05T02:06:13;11.20;99.90
37460;DHT22;23318;50.966;5.284;2023-01-05T02:08:38;11.30;99.90
37460;DHT22;23318;50.966;5.284;2023-01-05T02:19:57;11.30;99.90
37460;DHT22;23318;50.966;5.284;2023-01-05T02:22:55;11.30;99.90
37460;DHT22;23318;50.966;5.284;2023-01-05T02:36:33;11.20;99.90
37460;DHT22;23318;50.966;5.284;2023-01-05T02:39:09;11.30;99.90
37460;DHT22;23318;50.966;5.284;2023-01-05T02:41:51;11.30;99.90
37460;DHT22;23318;50.966;5.284;2023-01-05T02:44:19;11.30;99.90
37460;DHT22;23318;50.966;5.284;2023-01-05T02:46:46;11.30;99.90
37460;DHT22;23318;50.966;5.284;2023-01-05T02:49:15;11.30;99.90
37460;DHT22;23318;50.966;5.284;2023-01-05T02:51:47;11.30;99.90
37460;DHT22;23318;50.966;5.284;2023-01-05T02:54:21;11.30;99.90
37460;DHT22;23318;50.966;5.284;2023-01-05T02:57:00;11.40;99.90
37460;DHT22;23318;50.966;5.284;2023-01-05T02:59:52;11.40;99.90
37460;DHT22;23318;50.966;5.284;2023-01-05T03:02:26;11.40;99.90
37460;DHT22;23318;50.966;5.284;2023-01-05T03:04:59;11.30;99.90
37460;DHT22;23318;50.966;5.284;2023-01-05T03:07:31;11.30;99.90
37460;DHT22;23318;50.966;5.284;2023-01-05T03:09:57;11.30;99.90
37460;DHT22;23318;50.966;5.284;2023-01-05T03:12:43;11.30;99.90
37460;DHT22;23318;50.966;5.284;2023-01-05T03:15:29;11.30;99.90
37460;DHT22;23318;50.966;5.284;2023-01-05T03:18:03;11.30;99.90
37460;DHT22;23318;50.966;5.284;2023-01-05T03:20:32;11.40;99.90
37460;DHT22;23318;50.966;5.284;2023-01-05T03:22:59;11.30;99.90
37460;DHT22;23318;50.966;5.284;2023-01-05T03:25:47;11.20;99.90
37460;DHT22;23318;50.966;5.284;2023-01-05T03:28:52;11.30;99.90
37460;DHT22;23318;50.966;5.284;2023-01-05T03:31:51;11.30;99.90
37460;DHT22;23318;50.966;5.284;2023-01-05T03:34:54;11.40;99.90
37460;DHT22;23318;50.966;5.284;2023-01-05T03:37:43;11.30;99.90
37460;DHT22;23318;50.966;5.284;2023-01-05T03:40:25;11.40;99.90
37460;DHT22;23318;50.966;5.284;2023-01-05T03:42:54;11.40;99.90
37460;DHT22;23318;50.966;5.284;2023-01-05T03:45:21;11.40;99.90
37460;DHT22;23318;50.966;5.284;2023-01-05T03:47:47;11.40;99.90
37460;DHT22;23318;50.966;5.284;2023-01-05T03:50:14;11.40;99.90
37460;DHT22;23318;50.966;5.284;2023-01-05T03:52:39;11.50;99.90
37460;DHT22;23318;50.966;5.284;2023-01-05T03:55:05;11.40;99.90
37460;DHT22;23318;50.966;5.284;2023-01-05T03:57:31;11.40;99.90
37460;DHT22;23318;50.966;5.284;2023-01-05T03:59:56;11.40;99.90
37460;DHT22;23318;50.966;5.284;2023-01-05T04:02:22;11.40;99.90
37460;DHT22;23318;50.966;5.284;2023-01-05T04:04:48;11.50;99.90
37460;DHT22;23318;50.966;5.284;2023-01-05T04:07:13;11.40;99.90
37460;DHT22;23318;50.966;5.284;2023-01-05T04:09:39;11.40;99.90
37460;DHT22;23318;50.966;5.284;2023-01-05T04:12:05;11.60;99.90
37460;DHT22;23318;50.966;5.284;2023-01-05T04:14:30;11.50;99.90
37460;DHT22;23318;50.966;5.284;2023-01-05T04:16:56;11.50;99.90
37460;DHT22;23318;50.966;5.284;2023-01-05T04:19:22;11.50;99.90
37460;DHT22;23318;50.966;5.284;2023-01-05T04:21:47;11.40;99.90
37460;DHT22;23318;50.966;5.284;2023-01-05T04:24:13;11.50;99.90
37460;DHT22;23318;50.966;5.284;2023-01-05T04:26:39;11.40;99.90
37460;DHT22;23318;50.966;5.284;2023-01-05T04:29:06;11.30;99.90
37460;DHT22;23318;50.966;5.284;2023-01-05T04:31:32;11.40;99.90
37460;DHT22;23318;50.966;5.284;2023-01-05T04:33:58;11.40;99.90
37460;DHT22;23318;50.966;5.284;2023-01-05T04:36:23;11.40;99.90
37460;DHT22;23318;50.966;5.284;2023-01-05T04:38:49;11.40;99.90
37460;DHT22;23318;50.966;5.284;2023-01-05T04:41:14;11.40;99.90
37460;DHT22;23318;50.966;5.284;2023-01-05T04:43:40;11.40;99.90
37460;DHT22;23318;50.966;5.284;2023-01-05T04:46:06;11.40;99.90
37460;DHT22;23318;50.966;5.284;2023-01-05T04:48:32;11.40;99.90
37460;DHT22;23318;50.966;5.284;2023-01-05T04:50:58;11.40;99.90
37460;DHT22;23318;50.966;5.284;2023-01-05T04:53:23;11.40;99.90
37460;DHT22;23318;50.966;5.284;2023-01-05T04:55:50;11.40;99.90
37460;DHT22;23318;50.966;5.284;2023-01-05T04:58:16;11.40;99.90
37460;DHT22;23318;50.966;5.284;2023-01-05T05:00:41;11.40;99.90
37460;DHT22;23318;50.966;5.284;2023-01-05T05:03:07;11.30;99.90
37460;DHT22;23318;50.966;5.284;2023-01-05T05:05:33;11.20;99.90
37460;DHT22;23318;50.966;5.284;2023-01-05T05:07:58;11.20;99.90
37460;DHT22;23318;50.966;5.284;2023-01-05T05:10:24;11.20;99.90
37460;DHT22;23318;50.966;5.284;2023-01-05T05:12:50;11.20;99.90
37460;DHT22;23318;50.966;5.284;2023-01-05T05:15:16;11.20;99.90
37460;DHT22;23318;50.966;5.284;2023-01-05T05:17:41;11.30;99.90
37460;DHT22;23318;50.966;5.284;2023-01-05T05:20:08;11.20;99.90
37460;DHT22;23318;50.966;5.284;2023-01-05T05:22:34;11.20;99.90
37460;DHT22;23318;50.966;5.284;2023-01-05T05:24:59;11.30;99.90
37460;DHT22;23318;50.966;5.284;2023-01-05T05:27:25;11.30;99.90
37460;DHT22;23318;50.966;5.284;2023-01-05T05:29:50;11.30;99.90
37460;DHT22;23318;50.966;5.284;2023-01-05T05:32:16;11.40;99.90
37460;DHT22;23318;50.966;5.284;2023-01-05T05:34:42;11.30;99.90
37460;DHT22;23318;50.966;5.284;2023-01-05T05:37:07;11.30;99.90
37460;DHT22;23318;50.966;5.284;2023-01-05T05:39:33;11.30;99.90
37460;DHT22;23318;50.966;5.284;2023-01-05T05:41:59;11.30;99.90
37460;DHT22;23318;50.966;5.284;2023-01-05T05:44:24;11.30;99.90
37460;DHT22;23318;50.966;5.284;2023-01-05T05:46:50;11.30;99.90
37460;DHT22;23318;50.966;5.284;2023-01-05T05:49:16;11.30;99.90
37460;DHT22;23318;50.966;5.284;2023-01-05T05:51:41;11.20;99.90
37460;DHT22;23318;50.966;5.284;2023-01-05T05:54:07;11.30;99.90
37460;DHT22;23318;50.966;5.284;2023-01-05T05:56:33;11.30;99.90
37460;DHT22;23318;50.966;5.284;2023-01-05T05:58:58;11.30;99.90
37460;DHT22;23318;50.966;5.284;2023-01-05T06:01:24;11.30;99.90
37460;DHT22;23318;50.966;5.284;2023-01-05T06:03:50;11.30;99.90
37460;DHT22;23318;50.966;5.284;2023-01-05T06:06:15;11.30;99.90
37460;DHT22;23318;50.966;5.284;2023-01-05T06:08:41;11.30;99.90
37460;DHT22;23318;50.966;5.284;2023-01-05T06:11:07;11.30;99.90
37460;DHT22;23318;50.966;5.284;2023-01-05T06:13:33;11.30;99.90
37460;DHT22;23318;50.966;5.284;2023-01-05T06:15:58;11.20;99.90
37460;DHT22;23318;50.966;5.284;2023-01-05T06:18:24;11.30;99.90
37460;DHT22;23318;50.966;5.284;2023-01-05T06:20:52;11.30;99.90
37460;DHT22;23318;50.966;5.284;2023-01-05T06:23:18;11.30;99.90
37460;DHT22;23318;50.966;5.284;2023-01-05T06:25:44;11.30;99.90
37460;DHT22;23318;50.966;5.284;2023-01-05T06:28:10;11.30;99.90
37460;DHT22;23318;50.966;5.284;2023-01-05T06:30:35;11.20;99.90
37460;DHT22;23318;50.966;5.284;2023-01-05T06:33:01;11.30;99.90
37460;DHT22;23318;50.966;5.284;2023-01-05T06:35:27;11.30;99.90
37460;DHT22;23318;50.966;5.284;2023-01-05T06:37:53;11.20;99.90
37460;DHT22;23318;50.966;5.284;2023-01-05T06:40:18;11.30;99.90
37460;DHT22;23318;50.966;5.284;2023-01-05T06:42:44;11.30;99.90
37460;DHT22;23318;50.966;5.284;2023-01-05T06:45:13;11.30;99.90
37460;DHT22;23318;50.966;5.284;2023-01-05T06:47:39;11.30;99.90
37460;DHT22;23318;50.966;5.284;2023-01-05T06:50:05;11.40;99.90
37460;DHT22;23318;50.966;5.284;2023-01-05T06:52:31;11.40;99.90
37460;DHT22;23318;50.966;5.284;2023-01-05T06:55:02;11.40;99.90
37460;DHT22;23318;50.966;5.284;2023-01-05T06:57:28;11.40;99.90
37460;DHT22;23318;50.966;5.284;2023-01-05T06:59:54;11.40;99.90
37460;DHT22;23318;50.966;5.284;2023-01-05T07:02:19;11.40;99.90
37460;DHT22;23318;50.966;5.284;2023-01-05T07:04:45;11.30;99.90
37460;DHT22;23318;50.966;5.284;2023-01-05T07:07:12;11.20;99.90
37460;DHT22;23318;50.966;5.284;2023-01-05T07:09:38;11.30;99.90
37460;DHT22;23318;50.966;5.284;2023-01-05T07:12:04;11.30;99.90
37460;DHT22;23318;50.966;5.284;2023-01-05T07:14:30;11.20;99.90
37460;DHT22;23318;50.966;5.284;2023-01-05T07:16:55;11.30;99.90
37460;DHT22;23318;50.966;5.284;2023-01-05T07:19:21;11.30;99.90
37460;DHT22;23318;50.966;5.284;2023-01-05T07:21:47;11.40;99.90
37460;DHT22;23318;50.966;5.284;2023-01-05T07:24:12;11.40;99.90
37460;DHT22;23318;50.966;5.284;2023-01-05T07:26:38;11.40;99.90
37460;DHT22;23318;50.966;5.284;2023-01-05T07:29:04;11.40;99.90
37460;DHT22;23318;50.966;5.284;2023-01-05T07:31:29;11.40;99.90
37460;DHT22;23318;50.966;5.284;2023-01-05T07:33:55;11.30;99.90
37460;DHT22;23318;50.966;5.284;2023-01-05T07:36:21;11.30;99.90
37460;DHT22;23318;50.966;5.284;2023-01-05T07:38:48;11.20;99.90
37460;DHT22;23318;50.966;5.284;2023-01-05T07:41:13;11.20;99.90
37460;DHT22;23318;50.966;5.284;2023-01-05T07:43:40;11.30;99.90
37460;DHT22;23318;50.966;5.284;2023-01-05T07:46:06;11.20;99.90
37460;DHT22;23318;50.966;5.284;2023-01-05T07:48:31;11.20;99.90
37460;DHT22;23318;50.966;5.284;2023-01-05T07:51:04;11.20;99.90
37460;DHT22;23318;50.966;5.284;2023-01-05T07:53:31;11.20;99.90
37460;DHT22;23318;50.966;5.284;2023-01-05T07:55:59;11.10;99.90
37460;DHT22;23318;50.966;5.284;2023-01-05T07:58:26;11.20;99.90
37460;DHT22;23318;50.966;5.284;2023-01-05T08:00:52;11.20;99.90
37460;DHT22;23318;50.966;5.284;2023-01-05T08:03:18;11.20;99.90
37460;DHT22;23318;50.966;5.284;2023-01-05T08:05:44;11.10;99.90
37460;DHT22;23318;50.966;5.284;2023-01-05T08:08:10;11.20;99.90
37460;DHT22;23318;50.966;5.284;2023-01-05T08:10:38;11.20;99.90
37460;DHT22;23318;50.966;5.284;2023-01-05T08:13:05;11.10;99.90
37460;DHT22;23318;50.966;5.284;2023-01-05T08:15:50;11.20;99.90
37460;DHT22;23318;50.966;5.284;2023-01-05T08:18:16;11.30;99.90
37460;DHT22;23318;50.966;5.284;2023-01-05T08:20:42;11.20;99.90
37460;DHT22;23318;50.966;5.284;2023-01-05T08:23:08;11.20;99.90
37460;DHT22;23318;50.966;5.284;2023-01-05T08:25:34;11.30;99.90
37460;DHT22;23318;50.966;5.284;2023-01-05T08:27:59;11.20;99.90
37460;DHT22;23318;50.966;5.284;2023-01-05T08:30:25;11.20;99.90
37460;DHT22;23318;50.966;5.284;2023-01-05T08:32:51;11.00;99.90
37460;DHT22;23318;50.966;5.284;2023-01-05T08:35:17;11.10;99.90
37460;DHT22;23318;50.966;5.284;2023-01-05T08:37:45;11.10;99.90
37460;DHT22;23318;50.966;5.284;2023-01-05T08:40:11;11.30;99.90
37460;DHT22;23318;50.966;5.284;2023-01-05T08:42:37;11.30;99.90
37460;DHT22;23318;50.966;5.284;2023-01-05T08:45:03;11.30;99.90
37460;DHT22;23318;50.966;5.284;2023-01-05T08:47:29;11.30;99.90
37460;DHT22;23318;50.966;5.284;2023-01-05T08:49:55;11.40;99.90
37460;DHT22;23318;50.966;5.284;2023-01-05T08:52:21;11.30;99.90
37460;DHT22;23318;50.966;5.284;2023-01-05T08:54:48;11.30;99.90
37460;DHT22;23318;50.966;5.284;2023-01-05T08:57:13;11.30;99.90
37460;DHT22;23318;50.966;5.284;2023-01-05T08:59:39;11.30;99.90
37460;DHT22;23318;50.966;5.284;2023-01-05T09:02:09;11.30;99.90
37460;DHT22;23318;50.966;5.284;2023-01-05T09:04:35;11.30;99.90
37460;DHT22;23318;50.966;5.284;2023-01-05T09:07:00;11.50;99.90
37460;DHT22;23318;50.966;5.284;2023-01-05T09:09:26;11.50;99.90
37460;DHT22;23318;50.966;5.284;2023-01-05T09:11:52;11.50;99.90
37460;DHT22;23318;50.966;5.284;2023-01-05T09:14:17;11.50;99.90
37460;DHT22;23318;50.966;5.284;2023-01-05T09:16:43;11.40;99.90
37460;DHT22;23318;50.966;5.284;2023-01-05T09:19:09;11.40;99.90
37460;DHT22;23318;50.966;5.284;2023-01-05T09:21:35;11.30;99.90
37460;DHT22;23318;50.966;5.284;2023-01-05T09:24:00;11.40;99.90
37460;DHT22;23318;50.966;5.284;2023-01-05T09:26:26;11.40;99.90
37460;DHT22;23318;50.966;5.284;2023-01-05T09:28:52;11.50;99.90
37460;DHT22;23318;50.966;5.284;2023-01-05T09:31:20;11.40;99.90
37460;DHT22;23318;50.966;5.284;2023-01-05T09:33:46;11.40;99.90
37460;DHT22;23318;50.966;5.284;2023-01-05T09:36:14;11.50;99.90
37460;DHT22;23318;50.966;5.284;2023-01-05T09:38:40;11.60;99.90
37460;DHT22;23318;50.966;5.284;2023-01-05T09:44:11;11.70;99.90
37460;DHT22;23318;50.966;5.284;2023-01-05T09:46:41;11.70;99.90
37460;DHT22;23318;50.966;5.284;2023-01-05T09:49:13;11.70;99.90
37460;DHT22;23318;50.966;5.284;2023-01-05T09:51:39;11.50;99.90
37460;DHT22;23318;50.966;5.284;2023-01-05T09:54:06;11.50;99.90
37460;DHT22;23318;50.966;5.284;2023-01-05T09:56:41;11.50;99.90
37460;DHT22;23318;50.966;5.284;2023-01-05T09:59:15;11.40;99.90
37460;DHT22;23318;50.966;5.284;2023-01-05T10:01:45;11.50;99.90
37460;DHT22;23318;50.966;5.284;2023-01-05T10:04:20;11.60;99.90
37460;DHT22;23318;50.966;5.284;2023-01-05T10:06:51;11.80;99.90
37460;DHT22;23318;50.966;5.284;2023-01-05T10:09:21;12.00;99.90
37460;DHT22;23318;50.966;5.284;2023-01-05T10:11:54;11.90;99.90
37460;DHT22;23318;50.966;5.284;2023-01-05T10:14:45;11.70;99.90
37460;DHT22;23318;50.966;5.284;2023-01-05T10:17:22;11.60;99.90
37460;DHT22;23318;50.966;5.284;2023-01-05T10:19:48;11.70;99.90
37460;DHT22;23318;50.966;5.284;2023-01-05T10:27:26;11.60;99.90
37460;DHT22;23318;50.966;5.284;2023-01-05T10:30:24;11.80;99.90
37460;DHT22;23318;50.966;5.284;2023-01-05T10:32:59;11.80;99.90
37460;DHT22;23318;50.966;5.284;2023-01-05T10:41:20;11.70;99.90
37460;DHT22;23318;50.966;5.284;2023-01-05T10:46:23;11.70;99.90
37460;DHT22;23318;50.966;5.284;2023-01-05T10:48:49;11.70;99.90
37460;DHT22;23318;50.966;5.284;2023-01-05T10:51:15;11.80;99.90
37460;DHT22;23318;50.966;5.284;2023-01-05T10:53:42;11.80;99.90
37460;DHT22;23318;50.966;5.284;2023-01-05T10:58:39;11.90;99.90
37460;DHT22;23318;50.966;5.284;2023-01-05T11:01:21;12.00;99.90
37460;DHT22;23318;50.966;5.284;2023-01-05T11:03:52;12.00;99.90
37460;DHT22;23318;50.966;5.284;2023-01-05T11:06:29;12.10;99.90
37460;DHT22;23318;50.966;5.284;2023-01-05T11:11:37;12.30;99.90
37460;DHT22;23318;50.966;5.284;2023-01-05T11:14:04;12.30;99.90
37460;DHT22;23318;50.966;5.284;2023-01-05T11:16:33;12.10;99.90
37460;DHT22;23318;50.966;5.284;2023-01-05T11:19:05;12.20;99.90
37460;DHT22;23318;50.966;5.284;2023-01-05T11:24:01;12.20;99.90
37460;DHT22;23318;50.966;5.284;2023-01-05T11:26:31;12.30;99.90
37460;DHT22;23318;50.966;5.284;2023-01-05T11:31:41;12.00;99.90
37460;DHT22;23318;50.966;5.284;2023-01-05T11:39:48;12.10;99.90
37460;DHT22;23318;50.966;5.284;2023-01-05T11:45:06;11.90;99.90
37460;DHT22;23318;50.966;5.284;2023-01-05T11:47:47;11.90;99.90
37460;DHT22;23318;50.966;5.284;2023-01-05T11:50:19;12.00;99.90
37460;DHT22;23318;50.966;5.284;2023-01-05T11:52:50;12.10;99.90
37460;DHT22;23318;50.966;5.284;2023-01-05T11:57:52;12.40;99.90
37460;DHT22;23318;50.966;5.284;2023-01-05T12:00:31;12.50;99.90
37460;DHT22;23318;50.966;5.284;2023-01-05T12:03:22;13.00;99.90
37460;DHT22;23318;50.966;5.284;2023-01-05T12:05:54;13.20;99.90
37460;DHT22;23318;50.966;5.284;2023-01-05T12:08:31;13.60;99.90
37460;DHT22;23318;50.966;5.284;2023-01-05T12:11:15;13.70;99.90
37460;DHT22;23318;50.966;5.284;2023-01-05T12:13:57;14.10;99.90
37460;DHT22;23318;50.966;5.284;2023-01-05T12:29:50;13.00;99.90
37460;DHT22;23318;50.966;5.284;2023-01-05T12:38:35;13.30;99.90
37460;DHT22;23318;50.966;5.284;2023-01-05T12:41:22;13.50;99.90
37460;DHT22;23318;50.966;5.284;2023-01-05T12:49:36;12.90;99.90
37460;DHT22;23318;50.966;5.284;2023-01-05T12:52:39;13.00;99.90
37460;DHT22;23318;50.966;5.284;2023-01-05T12:55:16;13.00;99.90
37460;DHT22;23318;50.966;5.284;2023-01-05T12:57:45;13.20;99.90
37460;DHT22;23318;50.966;5.284;2023-01-05T13:00:19;13.10;99.90
37460;DHT22;23318;50.966;5.284;2023-01-05T13:05:20;13.00;99.90
37460;DHT22;23318;50.966;5.284;2023-01-05T13:08:04;13.30;99.90
37460;DHT22;23318;50.966;5.284;2023-01-05T13:13:15;12.80;99.90
37460;DHT22;23318;50.966;5.284;2023-01-05T13:16:04;12.90;99.90
37460;DHT22;23318;50.966;5.284;2023-01-05T13:18:36;12.80;99.90
37460;DHT22;23318;50.966;5.284;2023-01-05T13:21:04;12.60;99.90
37460;DHT22;23318;50.966;5.284;2023-01-05T13:23:43;12.80;99.90
37460;DHT22;23318;50.966;5.284;2023-01-05T13:26:20;13.20;99.90
37460;DHT22;23318;50.966;5.284;2023-01-05T13:28:52;12.90;99.90
37460;DHT22;23318;50.966;5.284;2023-01-05T13:31:36;12.80;99.90
37460;DHT22;23318;50.966;5.284;2023-01-05T13:39:43;13.00;99.90
37460;DHT22;23318;50.966;5.284;2023-01-05T13:54:03;12.60;99.90
37460;DHT22;23318;50.966;5.284;2023-01-05T13:56:30;12.50;99.90
37460;DHT22;23318;50.966;5.284;2023-01-05T13:59:04;12.40;99.90
37460;DHT22;23318;50.966;5.284;2023-01-05T14:04:02;12.20;99.90
37460;DHT22;23318;50.966;5.284;2023-01-05T14:06:32;12.10;99.90
37460;DHT22;23318;50.966;5.284;2023-01-05T14:09:05;11.80;99.90
37460;DHT22;23318;50.966;5.284;2023-01-05T14:11:33;11.50;99.90
37460;DHT22;23318;50.966;5.284;2023-01-05T14:14:24;11.40;99.90
37460;DHT22;23318;50.966;5.284;2023-01-05T14:16:51;11.20;99.90
37460;DHT22;23318;50.966;5.284;2023-01-05T14:24:35;11.00;99.90
37460;DHT22;23318;50.966;5.284;2023-01-05T14:27:17;11.00;99.90
37460;DHT22;23318;50.966;5.284;2023-01-05T14:34:49;11.10;99.90
37460;DHT22;23318;50.966;5.284;2023-01-05T14:39:55;10.80;99.90
37460;DHT22;23318;50.966;5.284;2023-01-05T14:42:32;10.80;99.90
37460;DHT22;23318;50.966;5.284;2023-01-05T14:45:08;10.70;99.90
37460;DHT22;23318;50.966;5.284;2023-01-05T14:47:47;10.70;99.90
37460;DHT22;23318;50.966;5.284;2023-01-05T14:56:24;10.70;99.90
37460;DHT22;23318;50.966;5.284;2023-01-05T15:09:46;11.00;99.90
37460;DHT22;23318;50.966;5.284;2023-01-05T15:15:18;11.30;99.90
37460;DHT22;23318;50.966;5.284;2023-01-05T15:31:40;11.70;99.90
37460;DHT22;23318;50.966;5.284;2023-01-05T15:37:42;11.80;99.90
37460;DHT22;23318;50.966;5.284;2023-01-05T15:42:16;11.60;99.90
37460;DHT22;23318;50.966;5.284;2023-01-05T15:44:45;11.80;99.90
37460;DHT22;23318;50.966;5.284;2023-01-05T15:47:13;12.20;99.90
37460;DHT22;23318;50.966;5.284;2023-01-05T15:49:39;12.10;99.90
37460;DHT22;23318;50.966;5.284;2023-01-05T15:52:16;12.30;99.90
37460;DHT22;23318;50.966;5.284;2023-01-05T15:54:42;12.30;99.90
37460;DHT22;23318;50.966;5.284;2023-01-05T15:57:20;12.20;99.90
37460;DHT22;23318;50.966;5.284;2023-01-05T15:59:47;11.70;99.90
37460;DHT22;23318;50.966;5.284;2023-01-05T16:02:28;11.90;99.90
37460;DHT22;23318;50.966;5.284;2023-01-05T16:05:08;11.90;99.90
37460;DHT22;23318;50.966;5.284;2023-01-05T16:07:34;11.90;99.90
37460;DHT22;23318;50.966;5.284;2023-01-05T16:10:05;11.80;99.90
37460;DHT22;23318;50.966;5.284;2023-01-05T16:12:31;12.30;99.90
37460;DHT22;23318;50.966;5.284;2023-01-05T16:15:02;12.50;99.90
37460;DHT22;23318;50.966;5.284;2023-01-05T16:17:30;12.20;99.90
37460;DHT22;23318;50.966;5.284;2023-01-05T16:20:31;11.90;99.90
37460;DHT22;23318;50.966;5.284;2023-01-05T16:25:57;11.70;99.90
37460;DHT22;23318;50.966;5.284;2023-01-05T16:28:24;11.90;99.90
37460;DHT22;23318;50.966;5.284;2023-01-05T16:30:51;12.20;99.90
37460;DHT22;23318;50.966;5.284;2023-01-05T16:33:31;12.20;99.90
37460;DHT22;23318;50.966;5.284;2023-01-05T16:36:17;12.20;99.90
37460;DHT22;23318;50.966;5.284;2023-01-05T16:38:43;12.00;99.90
37460;DHT22;23318;50.966;5.284;2023-01-05T16:41:24;12.00;99.90
37460;DHT22;23318;50.966;5.284;2023-01-05T16:43:57;11.70;99.90
37460;DHT22;23318;50.966;5.284;2023-01-05T16:46:36;11.60;99.90
37460;DHT22;23318;50.966;5.284;2023-01-05T16:51:49;11.60;99.90
37460;DHT22;23318;50.966;5.284;2023-01-05T16:54:25;11.50;99.90
37460;DHT22;23318;50.966;5.284;2023-01-05T16:56:57;11.60;99.90
37460;DHT22;23318;50.966;5.284;2023-01-05T16:59:54;11.80;99.90
37460;DHT22;23318;50.966;5.284;2023-01-05T17:05:05;11.60;99.90
37460;DHT22;23318;50.966;5.284;2023-01-05T17:07:33;11.50;99.90
37460;DHT22;23318;50.966;5.284;2023-01-05T17:10:00;11.60;99.90
37460;DHT22;23318;50.966;5.284;2023-01-05T17:12:26;11.50;99.90
37460;DHT22;23318;50.966;5.284;2023-01-05T17:14:53;11.40;99.90
37460;DHT22;23318;50.966;5.284;2023-01-05T17:17:20;11.40;99.90
37460;DHT22;23318;50.966;5.284;2023-01-05T17:19:45;11.50;99.90
37460;DHT22;23318;50.966;5.284;2023-01-05T17:22:15;11.50;99.90
37460;DHT22;23318;50.966;5.284;2023-01-05T17:24:41;11.60;99.90
37460;DHT22;23318;50.966;5.284;2023-01-05T17:27:09;11.50;99.90
37460;DHT22;23318;50.966;5.284;2023-01-05T17:29:35;11.40;99.90
37460;DHT22;23318;50.966;5.284;2023-01-05T17:32:02;11.40;99.90
37460;DHT22;23318;50.966;5.284;2023-01-05T17:34:28;11.40;99.90
37460;DHT22;23318;50.966;5.284;2023-01-05T17:36:55;11.40;99.90
37460;DHT22;23318;50.966;5.284;2023-01-05T17:39:22;11.40;99.90
37460;DHT22;23318;50.966;5.284;2023-01-05T17:41:48;11.40;99.90
37460;DHT22;23318;50.966;5.284;2023-01-05T17:44:14;11.50;99.90
37460;DHT22;23318;50.966;5.284;2023-01-05T17:46:43;11.60;99.90
37460;DHT22;23318;50.966;5.284;2023-01-05T17:49:15;11.50;99.90
37460;DHT22;23318;50.966;5.284;2023-01-05T17:51:41;11.40;99.90
37460;DHT22;23318;50.966;5.284;2023-01-05T17:54:06;11.40;99.90
37460;DHT22;23318;50.966;5.284;2023-01-05T17:56:32;11.40;99.90
37460;DHT22;23318;50.966;5.284;2023-01-05T17:58:58;11.50;99.90
37460;DHT22;23318;50.966;5.284;2023-01-05T18:01:23;11.50;99.90
37460;DHT22;23318;50.966;5.284;2023-01-05T18:03:49;11.50;99.90
37460;DHT22;23318;50.966;5.284;2023-01-05T18:06:15;11.50;99.90
37460;DHT22;23318;50.966;5.284;2023-01-05T18:08:41;11.50;99.90
37460;DHT22;23318;50.966;5.284;2023-01-05T18:11:07;11.50;99.90
37460;DHT22;23318;50.966;5.284;2023-01-05T18:13:33;11.60;99.90
37460;DHT22;23318;50.966;5.284;2023-01-05T18:16:04;11.40;99.90
37460;DHT22;23318;50.966;5.284;2023-01-05T18:18:30;11.40;99.90
37460;DHT22;23318;50.966;5.284;2023-01-05T18:20:59;11.40;99.90
37460;DHT22;23318;50.966;5.284;2023-01-05T18:23:24;11.50;99.90
37460;DHT22;23318;50.966;5.284;2023-01-05T18:25:50;11.50;99.90
37460;DHT22;23318;50.966;5.284;2023-01-05T18:28:16;11.50;99.90
37460;DHT22;23318;50.966;5.284;2023-01-05T18:30:42;11.60;99.90
37460;DHT22;23318;50.966;5.284;2023-01-05T18:33:08;11.50;99.90
37460;DHT22;23318;50.966;5.284;2023-01-05T18:35:34;11.50;99.90
37460;DHT22;23318;50.966;5.284;2023-01-05T18:37:59;11.50;99.90
37460;DHT22;23318;50.966;5.284;2023-01-05T18:40:27;11.60;99.90